sensor_id;sensor_type;location;lat;lon;timestamp;P1;durP1;ratioP1;P2;durP2;ratioP2
72547;SDS011;60570;50.848;6.776;2023-03-16T00:00:17;2.55;;;0.90;;
72547;SDS011;60570;50.848;6.776;2023-03-16T00:01:18;2.97;;;1.00;;
72547;SDS011;60570;50.848;6.776;2023-03-16T00:02:19;2.63;;;0.85;;
72547;SDS011;60570;50.848;6.776;2023-03-16T00:03:19;5.22;;;1.40;;
72547;SDS011;60570;50.848;6.776;2023-03-16T00:04:20;3.55;;;1.15;;
72547;SDS011;60570;50.848;6.776;2023-03-16T00:05:20;2.65;;;0.70;;
72547;SDS011;60570;50.848;6.776;2023-03-16T00:06:21;2.55;;;0.90;;
72547;SDS011;60570;50.848;6.776;2023-03-16T00:07:21;2.80;;;1.00;;
72547;SDS011;60570;50.848;6.776;2023-03-16T00:08:22;3.80;;;1.20;;
72547;SDS011;60570;50.848;6.776;2023-03-16T00:09:23;3.88;;;1.40;;
72547;SDS011;60570;50.848;6.776;2023-03-16T00:10:29;3.55;;;1.02;;
72547;SDS011;60570;50.848;6.776;2023-03-16T00:11:30;2.63;;;0.95;;
72547;SDS011;60570;50.848;6.776;2023-03-16T00:12:30;4.03;;;1.30;;
72547;SDS011;60570;50.848;6.776;2023-03-16T00:13:33;3.03;;;1.10;;
72547;SDS011;60570;50.848;6.776;2023-03-16T00:14:34;2.83;;;1.10;;
72547;SDS011;60570;50.848;6.776;2023-03-16T00:15:34;6.20;;;1.00;;
72547;SDS011;60570;50.848;6.776;2023-03-16T00:16:35;2.72;;;0.93;;
72547;SDS011;60570;50.848;6.776;2023-03-16T00:17:35;4.78;;;1.30;;
72547;SDS011;60570;50.848;6.776;2023-03-16T00:18:36;5.13;;;1.17;;
72547;SDS011;60570;50.848;6.776;2023-03-16T00:19:37;4.35;;;1.23;;
72547;SDS011;60570;50.848;6.776;2023-03-16T00:20:38;2.75;;;1.00;;
72547;SDS011;60570;50.848;6.776;2023-03-16T00:21:38;3.92;;;0.90;;
72547;SDS011;60570;50.848;6.776;2023-03-16T00:22:39;3.65;;;1.10;;
72547;SDS011;60570;50.848;6.776;2023-03-16T00:23:41;2.40;;;0.90;;
72547;SDS011;60570;50.848;6.776;2023-03-16T00:24:41;3.67;;;1.40;;
72547;SDS011;60570;50.848;6.776;2023-03-16T00:25:42;3.17;;;1.13;;
72547;SDS011;60570;50.848;6.776;2023-03-16T00:26:43;4.05;;;1.00;;
72547;SDS011;60570;50.848;6.776;2023-03-16T00:27:47;3.03;;;1.10;;
72547;SDS011;60570;50.848;6.776;2023-03-16T00:28:47;5.20;;;1.30;;
72547;SDS011;60570;50.848;6.776;2023-03-16T00:29:48;3.42;;;0.90;;
72547;SDS011;60570;50.848;6.776;2023-03-16T00:30:54;2.97;;;0.93;;
72547;SDS011;60570;50.848;6.776;2023-03-16T00:31:58;2.42;;;0.90;;
72547;SDS011;60570;50.848;6.776;2023-03-16T00:32:58;3.05;;;1.02;;
72547;SDS011;60570;50.848;6.776;2023-03-16T00:33:58;4.18;;;1.33;;
72547;SDS011;60570;50.848;6.776;2023-03-16T00:35:02;3.75;;;1.20;;
72547;SDS011;60570;50.848;6.776;2023-03-16T00:36:04;3.42;;;1.00;;
72547;SDS011;60570;50.848;6.776;2023-03-16T00:37:08;3.03;;;1.05;;
72547;SDS011;60570;50.848;6.776;2023-03-16T00:38:09;3.05;;;1.10;;
72547;SDS011;60570;50.848;6.776;2023-03-16T00:39:09;4.00;;;0.90;;
72547;SDS011;60570;50.848;6.776;2023-03-16T00:40:10;4.45;;;1.10;;
72547;SDS011;60570;50.848;6.776;2023-03-16T00:41:12;4.00;;;0.90;;
72547;SDS011;60570;50.848;6.776;2023-03-16T00:42:14;2.58;;;0.80;;
72547;SDS011;60570;50.848;6.776;2023-03-16T00:43:16;2.65;;;0.93;;
72547;SDS011;60570;50.848;6.776;2023-03-16T00:44:17;4.53;;;1.00;;
72547;SDS011;60570;50.848;6.776;2023-03-16T00:45:18;4.82;;;1.05;;
72547;SDS011;60570;50.848;6.776;2023-03-16T00:46:18;1.88;;;0.70;;
72547;SDS011;60570;50.848;6.776;2023-03-16T00:47:18;3.97;;;1.08;;
72547;SDS011;60570;50.848;6.776;2023-03-16T00:48:19;2.38;;;0.77;;
72547;SDS011;60570;50.848;6.776;2023-03-16T00:49:23;2.97;;;1.00;;
72547;SDS011;60570;50.848;6.776;2023-03-16T00:50:23;3.40;;;0.90;;
72547;SDS011;60570;50.848;6.776;2023-03-16T00:51:24;3.80;;;1.00;;
72547;SDS011;60570;50.848;6.776;2023-03-16T00:52:24;4.22;;;0.95;;
72547;SDS011;60570;50.848;6.776;2023-03-16T00:53:26;3.63;;;1.10;;
72547;SDS011;60570;50.848;6.776;2023-03-16T00:54:27;3.22;;;1.08;;
72547;SDS011;60570;50.848;6.776;2023-03-16T00:55:28;2.90;;;0.90;;
72547;SDS011;60570;50.848;6.776;2023-03-16T00:56:28;5.53;;;0.90;;
72547;SDS011;60570;50.848;6.776;2023-03-16T00:57:29;3.53;;;1.00;;
72547;SDS011;60570;50.848;6.776;2023-03-16T00:58:32;3.63;;;1.10;;
72547;SDS011;60570;50.848;6.776;2023-03-16T00:59:34;4.43;;;0.88;;
72547;SDS011;60570;50.848;6.776;2023-03-16T01:00:37;2.67;;;1.00;;
72547;SDS011;60570;50.848;6.776;2023-03-16T01:01:39;2.80;;;0.80;;
72547;SDS011;60570;50.848;6.776;2023-03-16T01:02:41;4.85;;;0.90;;
72547;SDS011;60570;50.848;6.776;2023-03-16T01:03:44;8.15;;;0.93;;
72547;SDS011;60570;50.848;6.776;2023-03-16T01:04:46;3.28;;;1.10;;
72547;SDS011;60570;50.848;6.776;2023-03-16T01:05:46;4.35;;;1.15;;
72547;SDS011;60570;50.848;6.776;2023-03-16T01:06:47;3.08;;;0.80;;
72547;SDS011;60570;50.848;6.776;2023-03-16T01:07:48;3.55;;;1.20;;
72547;SDS011;60570;50.848;6.776;2023-03-16T01:08:49;3.03;;;0.90;;
72547;SDS011;60570;50.848;6.776;2023-03-16T01:09:51;3.83;;;0.93;;
72547;SDS011;60570;50.848;6.776;2023-03-16T01:10:51;7.25;;;1.00;;
72547;SDS011;60570;50.848;6.776;2023-03-16T01:11:52;3.20;;;0.82;;
72547;SDS011;60570;50.848;6.776;2023-03-16T01:12:53;2.88;;;1.00;;
72547;SDS011;60570;50.848;6.776;2023-03-16T01:13:55;5.10;;;0.90;;
72547;SDS011;60570;50.848;6.776;2023-03-16T01:14:56;3.55;;;1.10;;
72547;SDS011;60570;50.848;6.776;2023-03-16T01:15:57;3.50;;;0.70;;
72547;SDS011;60570;50.848;6.776;2023-03-16T01:16:58;2.03;;;0.68;;
72547;SDS011;60570;50.848;6.776;2023-03-16T01:17:59;3.72;;;1.00;;
72547;SDS011;60570;50.848;6.776;2023-03-16T01:18:59;2.05;;;0.85;;
72547;SDS011;60570;50.848;6.776;2023-03-16T01:20:01;3.80;;;1.00;;
72547;SDS011;60570;50.848;6.776;2023-03-16T01:21:04;6.70;;;1.13;;
72547;SDS011;60570;50.848;6.776;2023-03-16T01:22:06;2.75;;;0.80;;
72547;SDS011;60570;50.848;6.776;2023-03-16T01:23:08;3.58;;;0.98;;
72547;SDS011;60570;50.848;6.776;2023-03-16T01:24:09;2.88;;;0.75;;
72547;SDS011;60570;50.848;6.776;2023-03-16T01:25:10;6.95;;;1.48;;
72547;SDS011;60570;50.848;6.776;2023-03-16T01:26:11;7.53;;;1.23;;
72547;SDS011;60570;50.848;6.776;2023-03-16T01:27:14;7.68;;;0.93;;
72547;SDS011;60570;50.848;6.776;2023-03-16T01:28:14;4.75;;;1.00;;
72547;SDS011;60570;50.848;6.776;2023-03-16T01:29:15;5.60;;;0.68;;
72547;SDS011;60570;50.848;6.776;2023-03-16T01:30:15;4.88;;;1.10;;
72547;SDS011;60570;50.848;6.776;2023-03-16T01:31:16;3.33;;;0.85;;
72547;SDS011;60570;50.848;6.776;2023-03-16T01:32:16;3.95;;;0.80;;
72547;SDS011;60570;50.848;6.776;2023-03-16T01:33:17;3.58;;;0.90;;
72547;SDS011;60570;50.848;6.776;2023-03-16T01:34:17;6.95;;;0.82;;
72547;SDS011;60570;50.848;6.776;2023-03-16T01:35:18;1.45;;;0.60;;
72547;SDS011;60570;50.848;6.776;2023-03-16T01:36:20;3.15;;;0.85;;
72547;SDS011;60570;50.848;6.776;2023-03-16T01:37:21;4.30;;;0.70;;
72547;SDS011;60570;50.848;6.776;2023-03-16T01:38:22;4.25;;;0.73;;
72547;SDS011;60570;50.848;6.776;2023-03-16T01:39:23;3.75;;;0.65;;
72547;SDS011;60570;50.848;6.776;2023-03-16T01:40:24;2.72;;;0.75;;
72547;SDS011;60570;50.848;6.776;2023-03-16T01:41:24;2.08;;;0.70;;
72547;SDS011;60570;50.848;6.776;2023-03-16T01:42:26;1.67;;;0.70;;
72547;SDS011;60570;50.848;6.776;2023-03-16T01:43:27;3.33;;;0.90;;
72547;SDS011;60570;50.848;6.776;2023-03-16T01:44:48;1.35;;;0.60;;
72547;SDS011;60570;50.848;6.776;2023-03-16T01:47:03;3.97;;;0.75;;
72547;SDS011;60570;50.848;6.776;2023-03-16T01:48:04;3.03;;;0.80;;
72547;SDS011;60570;50.848;6.776;2023-03-16T01:49:16;3.83;;;0.80;;
72547;SDS011;60570;50.848;6.776;2023-03-16T01:50:19;3.25;;;0.60;;
72547;SDS011;60570;50.848;6.776;2023-03-16T01:52:42;3.50;;;0.52;;
72547;SDS011;60570;50.848;6.776;2023-03-16T01:53:43;2.65;;;0.73;;
72547;SDS011;60570;50.848;6.776;2023-03-16T01:55:48;3.47;;;0.77;;
72547;SDS011;60570;50.848;6.776;2023-03-16T01:58:09;1.42;;;0.60;;
72547;SDS011;60570;50.848;6.776;2023-03-16T01:59:13;7.63;;;0.98;;
72547;SDS011;60570;50.848;6.776;2023-03-16T02:00:17;3.50;;;0.88;;
72547;SDS011;60570;50.848;6.776;2023-03-16T02:01:20;3.20;;;0.70;;
72547;SDS011;60570;50.848;6.776;2023-03-16T02:02:22;3.58;;;0.80;;
72547;SDS011;60570;50.848;6.776;2023-03-16T02:03:25;2.15;;;0.52;;
72547;SDS011;60570;50.848;6.776;2023-03-16T02:05:43;3.30;;;0.70;;
72547;SDS011;60570;50.848;6.776;2023-03-16T02:06:52;3.50;;;0.88;;
72547;SDS011;60570;50.848;6.776;2023-03-16T02:07:55;3.58;;;0.60;;
72547;SDS011;60570;50.848;6.776;2023-03-16T02:08:58;2.30;;;0.60;;
72547;SDS011;60570;50.848;6.776;2023-03-16T02:10:00;2.35;;;0.70;;
72547;SDS011;60570;50.848;6.776;2023-03-16T02:11:03;4.35;;;0.70;;
72547;SDS011;60570;50.848;6.776;2023-03-16T02:12:07;4.55;;;0.90;;
72547;SDS011;60570;50.848;6.776;2023-03-16T02:13:09;1.48;;;0.63;;
72547;SDS011;60570;50.848;6.776;2023-03-16T02:14:10;2.42;;;0.80;;
72547;SDS011;60570;50.848;6.776;2023-03-16T02:15:12;2.13;;;0.90;;
72547;SDS011;60570;50.848;6.776;2023-03-16T02:16:14;2.03;;;0.60;;
72547;SDS011;60570;50.848;6.776;2023-03-16T02:17:19;1.75;;;0.60;;
72547;SDS011;60570;50.848;6.776;2023-03-16T02:18:22;2.30;;;0.90;;
72547;SDS011;60570;50.848;6.776;2023-03-16T02:19:35;1.98;;;0.65;;
72547;SDS011;60570;50.848;6.776;2023-03-16T02:20:48;1.55;;;0.50;;
72547;SDS011;60570;50.848;6.776;2023-03-16T02:22:05;2.50;;;0.60;;
72547;SDS011;60570;50.848;6.776;2023-03-16T02:23:08;1.92;;;0.60;;
72547;SDS011;60570;50.848;6.776;2023-03-16T02:24:17;2.38;;;1.15;;
72547;SDS011;60570;50.848;6.776;2023-03-16T02:25:17;2.83;;;0.77;;
72547;SDS011;60570;50.848;6.776;2023-03-16T02:26:35;2.60;;;0.95;;
72547;SDS011;60570;50.848;6.776;2023-03-16T02:30:22;3.05;;;0.68;;
72547;SDS011;60570;50.848;6.776;2023-03-16T02:31:23;2.67;;;0.70;;
72547;SDS011;60570;50.848;6.776;2023-03-16T02:32:25;2.65;;;0.60;;
72547;SDS011;60570;50.848;6.776;2023-03-16T02:33:28;1.90;;;0.57;;
72547;SDS011;60570;50.848;6.776;2023-03-16T02:34:30;2.60;;;0.82;;
72547;SDS011;60570;50.848;6.776;2023-03-16T02:35:31;2.75;;;0.63;;
72547;SDS011;60570;50.848;6.776;2023-03-16T02:36:32;2.50;;;0.55;;
72547;SDS011;60570;50.848;6.776;2023-03-16T02:37:35;2.20;;;0.70;;
72547;SDS011;60570;50.848;6.776;2023-03-16T02:38:36;3.63;;;0.77;;
72547;SDS011;60570;50.848;6.776;2023-03-16T02:39:36;1.90;;;0.75;;
72547;SDS011;60570;50.848;6.776;2023-03-16T02:40:36;2.78;;;0.70;;
72547;SDS011;60570;50.848;6.776;2023-03-16T02:41:37;2.97;;;0.50;;
72547;SDS011;60570;50.848;6.776;2023-03-16T02:42:38;3.45;;;0.60;;
72547;SDS011;60570;50.848;6.776;2023-03-16T02:43:43;3.53;;;0.80;;
72547;SDS011;60570;50.848;6.776;2023-03-16T02:44:52;3.17;;;0.82;;
72547;SDS011;60570;50.848;6.776;2023-03-16T02:45:57;1.38;;;0.52;;
72547;SDS011;60570;50.848;6.776;2023-03-16T02:47:00;2.20;;;0.60;;
72547;SDS011;60570;50.848;6.776;2023-03-16T02:48:06;3.58;;;0.90;;
72547;SDS011;60570;50.848;6.776;2023-03-16T02:49:24;2.35;;;0.60;;
72547;SDS011;60570;50.848;6.776;2023-03-16T02:50:35;1.60;;;0.65;;
72547;SDS011;60570;50.848;6.776;2023-03-16T02:51:36;2.70;;;0.80;;
72547;SDS011;60570;50.848;6.776;2023-03-16T02:52:37;2.85;;;0.77;;
72547;SDS011;60570;50.848;6.776;2023-03-16T02:53:38;2.78;;;1.05;;
72547;SDS011;60570;50.848;6.776;2023-03-16T02:54:38;3.28;;;0.85;;
72547;SDS011;60570;50.848;6.776;2023-03-16T02:55:39;1.92;;;0.80;;
72547;SDS011;60570;50.848;6.776;2023-03-16T02:56:39;1.08;;;0.45;;
72547;SDS011;60570;50.848;6.776;2023-03-16T02:57:41;3.20;;;0.93;;
72547;SDS011;60570;50.848;6.776;2023-03-16T02:58:41;1.73;;;0.55;;
72547;SDS011;60570;50.848;6.776;2023-03-16T02:59:42;3.95;;;0.82;;
72547;SDS011;60570;50.848;6.776;2023-03-16T03:00:42;1.65;;;0.60;;
72547;SDS011;60570;50.848;6.776;2023-03-16T03:01:44;3.53;;;0.90;;
72547;SDS011;60570;50.848;6.776;2023-03-16T03:02:44;2.78;;;0.98;;
72547;SDS011;60570;50.848;6.776;2023-03-16T03:03:45;1.85;;;0.60;;
72547;SDS011;60570;50.848;6.776;2023-03-16T03:04:45;2.42;;;0.68;;
72547;SDS011;60570;50.848;6.776;2023-03-16T03:05:46;2.45;;;0.75;;
72547;SDS011;60570;50.848;6.776;2023-03-16T03:06:46;2.70;;;0.73;;
72547;SDS011;60570;50.848;6.776;2023-03-16T03:07:47;1.90;;;0.60;;
72547;SDS011;60570;50.848;6.776;2023-03-16T03:08:47;3.22;;;0.80;;
72547;SDS011;60570;50.848;6.776;2023-03-16T03:09:47;2.85;;;0.80;;
72547;SDS011;60570;50.848;6.776;2023-03-16T03:10:48;2.75;;;0.82;;
72547;SDS011;60570;50.848;6.776;2023-03-16T03:11:48;2.35;;;0.70;;
72547;SDS011;60570;50.848;6.776;2023-03-16T03:12:50;2.97;;;0.65;;
72547;SDS011;60570;50.848;6.776;2023-03-16T03:13:51;3.08;;;0.77;;
72547;SDS011;60570;50.848;6.776;2023-03-16T03:14:51;3.35;;;0.80;;
72547;SDS011;60570;50.848;6.776;2023-03-16T03:15:51;2.25;;;0.70;;
72547;SDS011;60570;50.848;6.776;2023-03-16T03:16:52;4.35;;;0.90;;
72547;SDS011;60570;50.848;6.776;2023-03-16T03:17:52;2.65;;;0.90;;
72547;SDS011;60570;50.848;6.776;2023-03-16T03:18:53;3.58;;;0.70;;
72547;SDS011;60570;50.848;6.776;2023-03-16T03:19:53;3.67;;;0.77;;
72547;SDS011;60570;50.848;6.776;2023-03-16T03:20:54;2.67;;;0.52;;
72547;SDS011;60570;50.848;6.776;2023-03-16T03:21:54;5.72;;;1.08;;
72547;SDS011;60570;50.848;6.776;2023-03-16T03:22:55;1.65;;;0.60;;
72547;SDS011;60570;50.848;6.776;2023-03-16T03:23:56;1.10;;;0.50;;
72547;SDS011;60570;50.848;6.776;2023-03-16T03:24:56;2.42;;;0.75;;
72547;SDS011;60570;50.848;6.776;2023-03-16T03:25:57;1.08;;;0.50;;
72547;SDS011;60570;50.848;6.776;2023-03-16T03:26:59;3.63;;;0.65;;
72547;SDS011;60570;50.848;6.776;2023-03-16T03:28:00;3.08;;;0.70;;
72547;SDS011;60570;50.848;6.776;2023-03-16T03:29:01;1.02;;;0.40;;
72547;SDS011;60570;50.848;6.776;2023-03-16T03:30:03;1.52;;;0.55;;
72547;SDS011;60570;50.848;6.776;2023-03-16T03:31:04;4.80;;;0.90;;
72547;SDS011;60570;50.848;6.776;2023-03-16T03:32:05;1.98;;;0.68;;
72547;SDS011;60570;50.848;6.776;2023-03-16T03:33:06;3.08;;;0.65;;
72547;SDS011;60570;50.848;6.776;2023-03-16T03:34:06;4.70;;;1.02;;
72547;SDS011;60570;50.848;6.776;2023-03-16T03:35:07;2.28;;;0.90;;
72547;SDS011;60570;50.848;6.776;2023-03-16T03:36:08;3.08;;;0.80;;
72547;SDS011;60570;50.848;6.776;2023-03-16T03:37:10;2.97;;;0.90;;
72547;SDS011;60570;50.848;6.776;2023-03-16T03:38:10;2.42;;;0.80;;
72547;SDS011;60570;50.848;6.776;2023-03-16T03:39:11;2.25;;;0.80;;
72547;SDS011;60570;50.848;6.776;2023-03-16T03:40:12;2.33;;;1.00;;
72547;SDS011;60570;50.848;6.776;2023-03-16T03:41:15;3.65;;;1.35;;
72547;SDS011;60570;50.848;6.776;2023-03-16T03:42:15;3.55;;;1.00;;
72547;SDS011;60570;50.848;6.776;2023-03-16T03:43:19;3.22;;;0.68;;
72547;SDS011;60570;50.848;6.776;2023-03-16T03:44:23;2.70;;;0.93;;
72547;SDS011;60570;50.848;6.776;2023-03-16T03:45:24;4.80;;;1.00;;
72547;SDS011;60570;50.848;6.776;2023-03-16T03:46:25;2.85;;;0.90;;
72547;SDS011;60570;50.848;6.776;2023-03-16T03:47:26;3.17;;;1.00;;
72547;SDS011;60570;50.848;6.776;2023-03-16T03:48:26;2.97;;;1.10;;
72547;SDS011;60570;50.848;6.776;2023-03-16T03:49:27;2.95;;;1.00;;
72547;SDS011;60570;50.848;6.776;2023-03-16T03:50:28;2.15;;;0.95;;
72547;SDS011;60570;50.848;6.776;2023-03-16T03:51:29;2.40;;;0.90;;
72547;SDS011;60570;50.848;6.776;2023-03-16T03:52:30;3.55;;;1.15;;
72547;SDS011;60570;50.848;6.776;2023-03-16T03:53:30;3.88;;;1.15;;
72547;SDS011;60570;50.848;6.776;2023-03-16T03:54:31;4.32;;;0.95;;
72547;SDS011;60570;50.848;6.776;2023-03-16T03:55:31;2.58;;;1.00;;
72547;SDS011;60570;50.848;6.776;2023-03-16T03:56:32;2.75;;;0.90;;
72547;SDS011;60570;50.848;6.776;2023-03-16T03:57:32;2.65;;;1.00;;
72547;SDS011;60570;50.848;6.776;2023-03-16T03:58:32;2.63;;;0.80;;
72547;SDS011;60570;50.848;6.776;2023-03-16T03:59:33;5.82;;;1.00;;
72547;SDS011;60570;50.848;6.776;2023-03-16T04:00:34;4.40;;;1.02;;
72547;SDS011;60570;50.848;6.776;2023-03-16T04:01:34;4.15;;;1.08;;
72547;SDS011;60570;50.848;6.776;2023-03-16T04:02:35;4.28;;;1.10;;
72547;SDS011;60570;50.848;6.776;2023-03-16T04:03:36;2.90;;;0.90;;
72547;SDS011;60570;50.848;6.776;2023-03-16T04:04:36;3.95;;;1.20;;
72547;SDS011;60570;50.848;6.776;2023-03-16T04:05:37;2.35;;;1.02;;
72547;SDS011;60570;50.848;6.776;2023-03-16T04:06:37;7.07;;;1.10;;
72547;SDS011;60570;50.848;6.776;2023-03-16T04:07:38;2.28;;;0.90;;
72547;SDS011;60570;50.848;6.776;2023-03-16T04:08:38;2.75;;;1.20;;
72547;SDS011;60570;50.848;6.776;2023-03-16T04:09:39;2.33;;;0.82;;
72547;SDS011;60570;50.848;6.776;2023-03-16T04:10:40;5.32;;;1.05;;
72547;SDS011;60570;50.848;6.776;2023-03-16T04:11:41;5.20;;;1.20;;
72547;SDS011;60570;50.848;6.776;2023-03-16T04:12:41;3.78;;;0.82;;
72547;SDS011;60570;50.848;6.776;2023-03-16T04:13:42;4.07;;;1.15;;
72547;SDS011;60570;50.848;6.776;2023-03-16T04:14:42;3.22;;;1.00;;
72547;SDS011;60570;50.848;6.776;2023-03-16T04:15:43;3.97;;;1.17;;
72547;SDS011;60570;50.848;6.776;2023-03-16T04:16:45;3.83;;;1.08;;
72547;SDS011;60570;50.848;6.776;2023-03-16T04:17:46;3.83;;;1.20;;
72547;SDS011;60570;50.848;6.776;2023-03-16T04:18:47;2.90;;;1.13;;
72547;SDS011;60570;50.848;6.776;2023-03-16T04:19:48;3.83;;;1.30;;
72547;SDS011;60570;50.848;6.776;2023-03-16T04:20:48;3.58;;;1.00;;
72547;SDS011;60570;50.848;6.776;2023-03-16T04:21:49;3.22;;;1.60;;
72547;SDS011;60570;50.848;6.776;2023-03-16T04:22:50;4.75;;;1.20;;
72547;SDS011;60570;50.848;6.776;2023-03-16T04:23:57;3.75;;;1.23;;
72547;SDS011;60570;50.848;6.776;2023-03-16T04:24:57;2.72;;;1.10;;
72547;SDS011;60570;50.848;6.776;2023-03-16T04:25:58;3.22;;;1.38;;
72547;SDS011;60570;50.848;6.776;2023-03-16T04:26:59;3.35;;;1.13;;
72547;SDS011;60570;50.848;6.776;2023-03-16T04:28:01;3.25;;;1.15;;
72547;SDS011;60570;50.848;6.776;2023-03-16T04:29:02;4.20;;;1.10;;
72547;SDS011;60570;50.848;6.776;2023-03-16T04:30:03;2.65;;;1.20;;
72547;SDS011;60570;50.848;6.776;2023-03-16T04:31:10;4.32;;;1.33;;
72547;SDS011;60570;50.848;6.776;2023-03-16T04:32:10;4.95;;;1.33;;
72547;SDS011;60570;50.848;6.776;2023-03-16T04:33:11;4.07;;;1.48;;
72547;SDS011;60570;50.848;6.776;2023-03-16T04:34:11;3.90;;;1.17;;
72547;SDS011;60570;50.848;6.776;2023-03-16T04:35:12;4.70;;;1.20;;
72547;SDS011;60570;50.848;6.776;2023-03-16T04:36:14;4.28;;;1.70;;
72547;SDS011;60570;50.848;6.776;2023-03-16T04:37:15;3.25;;;1.10;;
72547;SDS011;60570;50.848;6.776;2023-03-16T04:38:15;3.55;;;1.10;;
72547;SDS011;60570;50.848;6.776;2023-03-16T04:39:17;2.80;;;0.82;;
72547;SDS011;60570;50.848;6.776;2023-03-16T04:40:18;2.88;;;1.17;;
72547;SDS011;60570;50.848;6.776;2023-03-16T04:41:18;2.72;;;0.90;;
72547;SDS011;60570;50.848;6.776;2023-03-16T04:42:19;2.92;;;1.05;;
72547;SDS011;60570;50.848;6.776;2023-03-16T04:43:19;3.70;;;1.30;;
72547;SDS011;60570;50.848;6.776;2023-03-16T04:44:19;3.30;;;1.10;;
72547;SDS011;60570;50.848;6.776;2023-03-16T04:45:20;3.03;;;1.08;;
72547;SDS011;60570;50.848;6.776;2023-03-16T04:46:20;2.50;;;1.15;;
72547;SDS011;60570;50.848;6.776;2023-03-16T04:47:21;3.53;;;1.17;;
72547;SDS011;60570;50.848;6.776;2023-03-16T04:48:22;3.13;;;1.20;;
72547;SDS011;60570;50.848;6.776;2023-03-16T04:49:23;3.70;;;1.23;;
72547;SDS011;60570;50.848;6.776;2023-03-16T04:50:23;3.65;;;1.27;;
72547;SDS011;60570;50.848;6.776;2023-03-16T04:51:24;4.10;;;1.20;;
72547;SDS011;60570;50.848;6.776;2023-03-16T04:52:25;3.75;;;1.20;;
72547;SDS011;60570;50.848;6.776;2023-03-16T04:53:26;3.90;;;1.35;;
72547;SDS011;60570;50.848;6.776;2023-03-16T04:54:27;4.32;;;1.25;;
72547;SDS011;60570;50.848;6.776;2023-03-16T04:55:27;5.00;;;1.10;;
72547;SDS011;60570;50.848;6.776;2023-03-16T04:56:27;4.47;;;1.45;;
72547;SDS011;60570;50.848;6.776;2023-03-16T04:57:28;4.25;;;1.23;;
72547;SDS011;60570;50.848;6.776;2023-03-16T04:58:29;3.22;;;1.20;;
72547;SDS011;60570;50.848;6.776;2023-03-16T04:59:29;4.35;;;1.40;;
72547;SDS011;60570;50.848;6.776;2023-03-16T05:00:30;4.32;;;1.40;;
72547;SDS011;60570;50.848;6.776;2023-03-16T05:01:31;3.33;;;1.40;;
72547;SDS011;60570;50.848;6.776;2023-03-16T05:02:31;4.85;;;1.30;;
72547;SDS011;60570;50.848;6.776;2023-03-16T05:03:32;3.05;;;1.10;;
72547;SDS011;60570;50.848;6.776;2023-03-16T05:04:33;3.97;;;1.00;;
72547;SDS011;60570;50.848;6.776;2023-03-16T05:05:34;4.82;;;1.00;;
72547;SDS011;60570;50.848;6.776;2023-03-16T05:06:36;2.97;;;1.02;;
72547;SDS011;60570;50.848;6.776;2023-03-16T05:07:36;4.57;;;1.10;;
72547;SDS011;60570;50.848;6.776;2023-03-16T05:08:36;3.78;;;1.08;;
72547;SDS011;60570;50.848;6.776;2023-03-16T05:09:37;3.88;;;1.08;;
72547;SDS011;60570;50.848;6.776;2023-03-16T05:10:57;2.20;;;0.90;;
72547;SDS011;60570;50.848;6.776;2023-03-16T05:11:58;4.20;;;1.00;;
72547;SDS011;60570;50.848;6.776;2023-03-16T05:12:58;3.20;;;1.20;;
72547;SDS011;60570;50.848;6.776;2023-03-16T05:13:59;4.88;;;1.30;;
72547;SDS011;60570;50.848;6.776;2023-03-16T05:15:01;3.67;;;1.20;;
72547;SDS011;60570;50.848;6.776;2023-03-16T05:16:02;2.90;;;1.30;;
72547;SDS011;60570;50.848;6.776;2023-03-16T05:17:02;2.13;;;0.82;;
72547;SDS011;60570;50.848;6.776;2023-03-16T05:18:03;3.67;;;0.95;;
72547;SDS011;60570;50.848;6.776;2023-03-16T05:19:04;3.65;;;1.30;;
72547;SDS011;60570;50.848;6.776;2023-03-16T05:20:04;4.40;;;1.48;;
72547;SDS011;60570;50.848;6.776;2023-03-16T05:21:11;3.60;;;1.38;;
72547;SDS011;60570;50.848;6.776;2023-03-16T05:22:11;3.63;;;1.05;;
72547;SDS011;60570;50.848;6.776;2023-03-16T05:23:12;3.63;;;1.20;;
72547;SDS011;60570;50.848;6.776;2023-03-16T05:24:12;2.72;;;1.00;;
72547;SDS011;60570;50.848;6.776;2023-03-16T05:25:13;3.17;;;1.10;;
72547;SDS011;60570;50.848;6.776;2023-03-16T05:26:15;3.83;;;1.23;;
72547;SDS011;60570;50.848;6.776;2023-03-16T05:27:15;3.30;;;1.10;;
72547;SDS011;60570;50.848;6.776;2023-03-16T05:28:16;3.30;;;1.05;;
72547;SDS011;60570;50.848;6.776;2023-03-16T05:29:17;4.95;;;1.35;;
72547;SDS011;60570;50.848;6.776;2023-03-16T05:30:17;3.97;;;1.20;;
72547;SDS011;60570;50.848;6.776;2023-03-16T05:31:18;2.55;;;1.00;;
72547;SDS011;60570;50.848;6.776;2023-03-16T05:32:18;4.18;;;1.58;;
72547;SDS011;60570;50.848;6.776;2023-03-16T05:33:19;2.45;;;1.00;;
72547;SDS011;60570;50.848;6.776;2023-03-16T05:34:20;3.80;;;1.50;;
72547;SDS011;60570;50.848;6.776;2023-03-16T05:35:21;4.10;;;1.30;;
72547;SDS011;60570;50.848;6.776;2023-03-16T05:36:21;3.92;;;1.42;;
72547;SDS011;60570;50.848;6.776;2023-03-16T05:37:23;3.35;;;1.23;;
72547;SDS011;60570;50.848;6.776;2023-03-16T05:38:24;4.38;;;1.20;;
72547;SDS011;60570;50.848;6.776;2023-03-16T05:39:26;3.90;;;1.50;;
72547;SDS011;60570;50.848;6.776;2023-03-16T05:40:27;4.88;;;1.90;;
72547;SDS011;60570;50.848;6.776;2023-03-16T05:41:28;6.60;;;1.90;;
72547;SDS011;60570;50.848;6.776;2023-03-16T05:42:29;4.97;;;1.80;;
72547;SDS011;60570;50.848;6.776;2023-03-16T05:43:30;6.30;;;1.75;;
72547;SDS011;60570;50.848;6.776;2023-03-16T05:44:31;4.15;;;1.55;;
72547;SDS011;60570;50.848;6.776;2023-03-16T05:45:32;4.70;;;1.85;;
72547;SDS011;60570;50.848;6.776;2023-03-16T05:46:33;4.18;;;1.77;;
72547;SDS011;60570;50.848;6.776;2023-03-16T05:47:33;4.45;;;1.58;;
72547;SDS011;60570;50.848;6.776;2023-03-16T05:48:35;5.50;;;2.10;;
72547;SDS011;60570;50.848;6.776;2023-03-16T05:49:36;4.75;;;1.92;;
72547;SDS011;60570;50.848;6.776;2023-03-16T05:50:36;7.45;;;1.95;;
72547;SDS011;60570;50.848;6.776;2023-03-16T05:51:37;4.45;;;2.00;;
72547;SDS011;60570;50.848;6.776;2023-03-16T05:52:37;5.57;;;2.10;;
72547;SDS011;60570;50.848;6.776;2023-03-16T05:53:39;4.75;;;1.83;;
72547;SDS011;60570;50.848;6.776;2023-03-16T05:54:40;6.35;;;2.58;;
72547;SDS011;60570;50.848;6.776;2023-03-16T05:55:42;4.95;;;2.10;;
72547;SDS011;60570;50.848;6.776;2023-03-16T05:56:42;4.28;;;1.88;;
72547;SDS011;60570;50.848;6.776;2023-03-16T05:57:43;6.60;;;2.15;;
72547;SDS011;60570;50.848;6.776;2023-03-16T05:58:43;5.20;;;2.05;;
72547;SDS011;60570;50.848;6.776;2023-03-16T05:59:44;4.82;;;2.10;;
72547;SDS011;60570;50.848;6.776;2023-03-16T06:00:44;7.10;;;2.72;;
72547;SDS011;60570;50.848;6.776;2023-03-16T06:01:45;5.93;;;2.22;;
72547;SDS011;60570;50.848;6.776;2023-03-16T06:02:46;4.20;;;2.00;;
72547;SDS011;60570;50.848;6.776;2023-03-16T06:03:48;6.60;;;2.33;;
72547;SDS011;60570;50.848;6.776;2023-03-16T06:04:49;7.28;;;2.20;;
72547;SDS011;60570;50.848;6.776;2023-03-16T06:05:49;7.10;;;2.80;;
72547;SDS011;60570;50.848;6.776;2023-03-16T06:06:50;5.60;;;2.22;;
72547;SDS011;60570;50.848;6.776;2023-03-16T06:07:50;5.85;;;2.40;;
72547;SDS011;60570;50.848;6.776;2023-03-16T06:08:51;4.93;;;2.05;;
72547;SDS011;60570;50.848;6.776;2023-03-16T06:09:51;6.80;;;2.65;;
72547;SDS011;60570;50.848;6.776;2023-03-16T06:10:52;6.20;;;2.58;;
72547;SDS011;60570;50.848;6.776;2023-03-16T06:11:52;5.63;;;2.47;;
72547;SDS011;60570;50.848;6.776;2023-03-16T06:12:53;6.82;;;2.53;;
72547;SDS011;60570;50.848;6.776;2023-03-16T06:13:53;6.25;;;2.72;;
72547;SDS011;60570;50.848;6.776;2023-03-16T06:14:56;7.43;;;2.85;;
72547;SDS011;60570;50.848;6.776;2023-03-16T06:15:57;7.53;;;3.03;;
72547;SDS011;60570;50.848;6.776;2023-03-16T06:16:57;7.38;;;2.70;;
72547;SDS011;60570;50.848;6.776;2023-03-16T06:17:58;6.70;;;2.53;;
72547;SDS011;60570;50.848;6.776;2023-03-16T06:18:58;6.43;;;2.60;;
72547;SDS011;60570;50.848;6.776;2023-03-16T06:19:58;6.60;;;2.80;;